Time;durP1;ratioP1;P1;durP2;ratioP2;P2;SDS_P1;SDS_P2;PMS_P1;PMS_P2;Temp;Humidity;BMP_temperature;BMP_pressure;BME280_temperature;BME280_humidity;BME280_pressure;Samples;Min_cycle;Max_cycle;Signal;HPM_P1;HPM_P2
2023/06/25 00:01:54;;;;;;;26.17;23.80;;;;;;;20.52;59.21;100726.34;5011886;28;98705;-76
2023/06/25 00:04:21;;;;;;;25.05;22.98;;;;;;;20.42;59.32;100716.38;5012645;28;98687;-76
2023/06/25 00:06:47;;;;;;;25.95;23.75;;;;;;;20.45;59.03;100710.81;5011145;28;97319;-76
2023/06/25 00:09:12;;;;;;;26.48;24.13;;;;;;;20.43;59.45;100720.75;5012540;28;96791;-76
2023/06/25 00:11:38;;;;;;;26.27;23.92;;;;;;;20.42;59.31;100719.03;5011025;28;98634;-76
2023/06/25 00:14:04;;;;;;;26.42;24.15;;;;;;;20.34;59.35;100715.09;5012285;28;98129;-76
2023/06/25 00:16:29;;;;;;;26.77;24.48;;;;;;;20.38;59.31;100726.41;5011633;28;96714;-75
2023/06/25 00:18:56;;;;;;;26.15;23.95;;;;;;;20.30;59.44;100715.41;5012274;28;96935;-80
2023/06/25 00:21:22;;;;;;;26.27;23.73;;;;;;;20.29;59.51;100709.22;5009470;28;98846;-76
2023/06/25 00:23:47;;;;;;;26.58;24.15;;;;;;;20.32;59.46;100719.66;5012195;28;98259;-76
2023/06/25 00:26:13;;;;;;;25.77;23.58;;;;;;;20.21;59.53;100708.03;5011759;28;97667;-76
2023/06/25 00:28:38;;;;;;;25.90;23.80;;;;;;;20.16;59.75;100705.69;5012290;28;98060;-76
2023/06/25 00:31:05;;;;;;;26.90;24.55;;;;;;;20.15;59.96;100716.44;5011363;28;97923;-76
2023/06/25 00:33:32;;;;;;;25.48;23.38;;;;;;;20.13;59.83;100720.09;5011929;28;98659;-76
2023/06/25 00:35:57;;;;;;;26.05;23.55;;;;;;;20.11;60.00;100722.00;5011249;28;96856;-76
2023/06/25 00:38:23;;;;;;;25.50;23.27;;;;;;;20.03;60.10;100718.97;5011631;28;97149;-76
2023/06/25 00:40:50;;;;;;;27.10;24.88;;;;;;;20.06;60.14;100717.94;5011235;28;98699;-76
2023/06/25 00:43:15;;;;;;;26.77;24.20;;;;;;;20.05;60.21;100722.41;5012036;28;98401;-75
2023/06/25 00:45:44;;;;;;;25.63;23.55;;;;;;;20.03;60.34;100720.78;4993100;28;96782;-76
2023/06/25 00:48:10;;;;;;;24.67;22.45;;;;;;;20.02;60.32;100719.09;4994059;28;97191;-76
2023/06/25 00:50:36;;;;;;;25.05;22.85;;;;;;;19.98;60.20;100710.44;5012367;28;99229;-76
2023/06/25 00:53:02;;;;;;;26.48;23.92;;;;;;;19.87;60.12;100697.00;5032065;28;98626;-76
2023/06/25 00:55:28;;;;;;;25.88;23.50;;;;;;;19.83;60.11;100692.81;5028755;28;96849;-76
2023/06/25 00:57:55;;;;;;;25.08;23.08;;;;;;;19.89;60.45;100706.56;5031922;28;96972;-76
2023/06/25 01:00:24;;;;;;;26.40;24.30;;;;;;;19.90;60.51;100716.31;5031185;28;99069;-75
2023/06/25 01:03:12;;;;;;;25.20;23.20;;;;;;;19.84;60.55;100708.72;5014029;28;97339;-76
2023/06/25 01:06:06;;;;;;;25.98;23.63;;;;;;;19.80;60.71;100711.69;4992193;28;97113;-76
2023/06/25 01:08:36;;;;;;;24.85;22.85;;;;;;;19.78;60.65;100711.78;4959097;28;97507;-76
2023/06/25 01:11:02;;;;;;;26.63;24.52;;;;;;;19.67;60.73;100691.19;5011038;28;98980;-76
2023/06/25 01:13:27;;;;;;;26.20;23.83;;;;;;;19.72;60.93;100706.00;5022269;28;98322;-76
2023/06/25 01:15:53;;;;;;;26.13;23.98;;;;;;;19.59;60.77;100671.31;5017064;28;97442;-76
2023/06/25 01:18:19;;;;;;;24.63;22.42;;;;;;;19.73;61.00;100695.25;5025488;27;96872;-76
2023/06/25 01:20:45;;;;;;;26.05;23.75;;;;;;;19.72;60.99;100695.34;4996613;28;98869;-75
2023/06/25 01:23:10;;;;;;;26.20;24.00;;;;;;;19.65;60.94;100690.44;5035182;28;98702;-76
2023/06/25 01:25:36;;;;;;;25.30;22.95;;;;;;;19.59;61.05;100677.50;5015866;28;97252;-76
2023/06/25 01:28:02;;;;;;;26.02;24.02;;;;;;;19.57;61.40;100689.19;5016378;28;96831;-75
2023/06/25 01:30:31;;;;;;;25.88;23.77;;;;;;;19.56;61.31;100699.00;5013784;28;99137;-76
2023/06/25 01:32:58;;;;;;;25.35;23.13;;;;;;;19.52;61.50;100694.84;5028452;28;98862;-76
2023/06/25 01:35:24;;;;;;;25.95;23.67;;;;;;;19.44;61.49;100686.50;4996707;28;96841;-76
2023/06/25 01:37:50;;;;;;;26.65;24.25;;;;;;;19.49;61.58;100691.50;4997209;28;96976;-76
2023/06/25 01:40:16;;;;;;;26.60;24.23;;;;;;;19.37;61.79;100666.53;5034605;28;97504;-76
2023/06/25 01:42:43;;;;;;;25.55;23.42;;;;;;;19.43;61.40;100685.66;5034811;28;98043;-76
2023/06/25 01:45:09;;;;;;;26.05;23.95;;;;;;;19.40;61.63;100682.31;5030501;28;96726;-76
2023/06/25 01:47:36;;;;;;;25.52;23.52;;;;;;;19.37;61.76;100682.50;5001391;28;96903;-76
2023/06/25 01:50:02;;;;;;;26.45;24.15;;;;;;;19.33;61.85;100689.00;5030994;28;98632;-76
2023/06/25 01:52:28;;;;;;;25.65;23.55;;;;;;;19.32;61.94;100682.81;5024901;28;98367;-75
2023/06/25 01:54:54;;;;;;;25.00;22.75;;;;;;;19.29;61.96;100682.16;5028805;28;96881;-76
2023/06/25 01:57:20;;;;;;;26.73;23.98;;;;;;;19.21;61.89;100664.88;5020887;28;96814;-75
2023/06/25 01:59:45;;;;;;;25.75;23.50;;;;;;;19.18;61.95;100670.41;4996589;28;100595;-76
2023/06/25 02:02:11;;;;;;;27.27;24.88;;;;;;;19.21;61.82;100674.69;5013919;28;98456;-76
2023/06/25 02:04:38;;;;;;;25.80;23.70;;;;;;;19.27;62.00;100687.56;5015174;28;97652;-76
2023/06/25 02:07:03;;;;;;;26.88;24.52;;;;;;;19.25;61.91;100685.97;4996142;28;96825;-75
2023/06/25 02:09:29;;;;;;;26.08;23.98;;;;;;;19.24;61.93;100677.13;4995773;28;100791;-76
2023/06/25 02:11:54;;;;;;;25.92;23.70;;;;;;;19.17;62.03;100681.16;5013530;28;98477;-76
2023/06/25 02:14:21;;;;;;;26.08;23.48;;;;;;;19.19;62.09;100679.22;5014025;28;97115;-76
2023/06/25 02:16:46;;;;;;;25.73;23.63;;;;;;;19.14;61.89;100670.69;4995215;28;96896;-76
2023/06/25 02:19:12;;;;;;;26.63;24.23;;;;;;;19.00;61.95;100653.81;4995718;28;99968;-76
2023/06/25 02:21:38;;;;;;;26.83;24.52;;;;;;;19.16;61.65;100680.28;5013174;28;98311;-76
2023/06/25 02:24:05;;;;;;;27.63;24.38;;;;;;;19.15;61.68;100678.59;5014423;28;96982;-76
2023/06/25 02:26:31;;;;;;;26.20;23.90;;;;;;;19.10;61.98;100671.84;5013633;28;96877;-75
2023/06/25 02:28:56;;;;;;;26.48;24.27;;;;;;;19.05;61.72;100665.94;5013392;28;98630;-76
2023/06/25 02:31:23;;;;;;;27.02;24.33;;;;;;;19.10;61.81;100682.50;5012766;28;98789;-75
2023/06/25 02:33:49;;;;;;;25.50;23.20;;;;;;;19.07;61.80;100675.56;5013854;28;96695;-76
2023/06/25 02:36:15;;;;;;;25.70;23.60;;;;;;;19.03;61.79;100667.88;5013311;28;96728;-76
2023/06/25 02:38:41;;;;;;;26.70;24.05;;;;;;;18.99;61.83;100675.19;5012939;28;97476;-76
2023/06/25 02:41:06;;;;;;;25.33;23.15;;;;;;;18.94;61.94;100674.63;4995186;28;99906;-76
2023/06/25 02:43:32;;;;;;;26.63;24.00;;;;;;;18.90;61.97;100667.78;5013637;28;96821;-76
2023/06/25 02:45:58;;;;;;;25.33;23.02;;;;;;;18.94;62.07;100679.97;4995241;28;96872;-76
2023/06/25 02:48:24;;;;;;;26.42;24.05;;;;;;;18.91;62.11;100672.19;4995310;28;100670;-76
2023/06/25 02:50:50;;;;;;;25.58;23.50;;;;;;;18.90;61.96;100660.66;5013087;28;97442;-75
2023/06/25 02:53:15;;;;;;;25.83;23.73;;;;;;;18.91;61.90;100667.72;5013844;28;96733;-76
2023/06/25 02:55:41;;;;;;;26.27;23.77;;;;;;;18.88;62.03;100653.72;5013199;28;96920;-76
2023/06/25 02:58:06;;;;;;;25.27;23.35;;;;;;;18.84;61.92;100660.19;5013105;28;98867;-76
2023/06/25 03:00:34;;;;;;;27.17;24.50;;;;;;;18.78;61.91;100643.66;5011336;28;100294;-76
2023/06/25 03:03:00;;;;;;;26.45;23.98;;;;;;;18.90;62.12;100667.78;4994953;28;96796;-76
2023/06/25 03:05:25;;;;;;;26.30;24.13;;;;;;;18.81;62.16;100649.75;4995510;28;96883;-75
2023/06/25 03:07:56;;;;;;;26.02;23.67;;;;;;;18.86;62.01;100658.31;4994670;28;100460;-76
2023/06/25 03:10:26;;;;;;;25.37;23.27;;;;;;;18.94;61.97;100672.81;5013049;28;97380;-76
2023/06/25 03:12:53;;;;;;;24.80;22.88;;;;;;;18.97;62.16;100669.13;4995662;28;97857;-76
2023/06/25 03:15:18;;;;;;;24.90;22.80;;;;;;;18.98;62.07;100670.81;4995119;28;96898;-76
2023/06/25 03:17:45;;;;;;;25.73;23.48;;;;;;;18.94;61.96;100656.03;5012291;28;98250;-76
2023/06/25 03:20:11;;;;;;;26.40;23.45;;;;;;;19.07;61.91;100662.25;4976002;28;100191;-76
2023/06/25 03:22:37;;;;;;;25.95;23.52;;;;;;;19.12;61.56;100662.81;4994265;28;97050;-76
2023/06/25 03:25:05;;;;;;;25.23;23.00;;;;;;;19.15;61.56;100654.63;4995377;28;96829;-76
2023/06/25 03:27:33;;;;;;;24.40;22.70;;;;;;;19.25;61.31;100668.19;4993933;28;100622;-75
2023/06/25 03:29:58;;;;;;;26.15;23.67;;;;;;;19.29;61.23;100669.72;4994594;28;99652;-75
2023/06/25 03:32:25;;;;;;;25.13;23.17;;;;;;;19.35;60.99;100666.66;4993939;28;96941;-76
2023/06/25 03:34:51;;;;;;;24.73;22.45;;;;;;;19.40;61.17;100663.66;5013411;28;98085;-76
2023/06/25 03:37:17;;;;;;;24.52;22.60;;;;;;;19.38;60.90;100645.16;4994121;28;100752;-76
2023/06/25 03:39:43;;;;;;;25.80;23.23;;;;;;;19.49;60.88;100654.22;4997244;28;99603;-76
2023/06/25 03:42:09;;;;;;;25.25;23.10;;;;;;;19.57;60.67;100657.25;4995717;28;96790;-75
2023/06/25 03:44:34;;;;;;;25.63;23.00;;;;;;;19.68;60.41;100663.59;5007685;28;96978;-76
2023/06/25 03:47:01;;;;;;;24.20;22.00;;;;;;;19.75;60.16;100671.16;5013697;28;99600;-75
2023/06/25 03:49:26;;;;;;;24.48;22.23;;;;;;;19.71;59.84;100654.53;5014746;28;100080;-75
2023/06/25 03:51:52;;;;;;;24.60;22.58;;;;;;;19.87;59.57;100657.91;5008965;28;97596;-76
2023/06/25 03:54:17;;;;;;;25.92;23.58;;;;;;;19.93;59.58;100666.44;5023741;28;96852;-75
2023/06/25 03:56:44;;;;;;;24.58;22.15;;;;;;;19.87;59.32;100647.25;4999468;28;100700;-75
2023/06/25 03:59:11;;;;;;;26.02;22.10;;;;;;;20.05;59.01;100668.28;5014116;28;100036;-76
2023/06/25 04:01:37;;;;;;;24.95;22.95;;;;;;;19.97;58.79;100643.94;5032104;28;96857;-76
2023/06/25 04:04:02;;;;;;;26.13;23.80;;;;;;;20.14;58.87;100670.31;5007326;28;96849;-76
2023/06/25 04:06:29;;;;;;;24.90;22.45;;;;;;;20.15;58.58;100649.81;4993511;28;100672;-76
2023/06/25 04:08:56;;;;;;;24.60;22.33;;;;;;;20.27;58.51;100662.31;5012337;28;98627;-76
2023/06/25 04:11:21;;;;;;;24.80;22.58;;;;;;;20.35;58.38;100660.81;5012213;28;96884;-76
2023/06/25 04:13:47;;;;;;;25.27;23.08;;;;;;;20.33;58.04;100649.41;4994338;28;96859;-76
2023/06/25 04:16:13;;;;;;;24.17;22.00;;;;;;;20.44;57.91;100648.66;4993201;28;100641;-76
2023/06/25 04:18:41;;;;;;;25.13;22.88;;;;;;;20.50;57.84;100644.69;4993897;28;100813;-76
2023/06/25 04:21:06;;;;;;;25.45;23.15;;;;;;;20.63;57.61;100658.91;5012022;28;96734;-76
2023/06/25 04:23:33;;;;;;;24.10;21.85;;;;;;;20.69;57.40;100650.47;5012361;28;96992;-76
2023/06/25 04:25:59;;;;;;;24.88;22.42;;;;;;;20.78;57.23;100657.81;4993258;28;97965;-76
2023/06/25 04:28:24;;;;;;;24.30;21.90;;;;;;;20.91;56.64;100656.94;4993796;28;100031;-76
2023/06/25 04:30:50;;;;;;;24.00;21.83;;;;;;;20.77;56.57;100624.13;4993366;28;96665;-76
2023/06/25 04:33:16;;;;;;;23.08;21.13;;;;;;;21.10;56.50;100653.81;4984109;28;97854;-75
2023/06/25 04:35:43;;;;;;;24.60;22.17;;;;;;;21.29;56.36;100667.50;4973343;28;100466;-75
2023/06/25 04:38:09;;;;;;;25.00;22.48;;;;;;;21.36;56.22;100660.78;4973683;28;100140;-76
2023/06/25 04:40:35;;;;;;;25.40;22.73;;;;;;;21.41;56.08;100663.97;4973156;28;96941;-76
2023/06/25 04:43:01;;;;;;;24.20;21.90;;;;;;;21.46;55.54;100648.44;4974144;28;96871;-75
2023/06/25 04:45:26;;;;;;;25.17;22.52;;;;;;;21.63;55.12;100657.88;4991397;28;99308;-76
2023/06/25 04:47:52;;;;;;;23.38;21.33;;;;;;;21.76;55.00;100670.28;4973096;28;100128;-76
2023/06/25 04:50:17;;;;;;;25.98;22.63;;;;;;;21.82;54.53;100667.19;4973975;28;98055;-76
2023/06/25 04:52:43;;;;;;;24.42;22.13;;;;;;;21.94;54.31;100671.59;4975599;28;97030;-76
2023/06/25 04:55:08;;;;;;;24.83;21.30;;;;;;;21.99;54.03;100652.50;4998216;28;98695;-76
2023/06/25 04:57:34;;;;;;;24.02;21.98;;;;;;;22.14;53.83;100660.22;4998029;28;98530;-76
2023/06/25 05:00:00;;;;;;;23.15;21.15;;;;;;;22.25;53.68;100654.09;4998363;28;96983;-76
2023/06/25 05:02:25;;;;;;;23.85;21.73;;;;;;;22.44;53.33;100652.63;5010739;28;96798;-76
2023/06/25 05:04:51;;;;;;;23.83;21.75;;;;;;;22.52;53.39;100652.91;4999010;28;98712;-76
2023/06/25 05:07:16;;;;;;;23.02;21.33;;;;;;;22.66;53.36;100654.47;4997285;28;98461;-75
2023/06/25 05:09:42;;;;;;;23.92;21.40;;;;;;;22.77;52.81;100657.13;4998269;28;96782;-76
2023/06/25 05:12:08;;;;;;;26.23;23.13;;;;;;;22.86;52.54;100659.06;4997706;28;96868;-76
2023/06/25 05:14:34;;;;;;;22.75;20.88;;;;;;;22.96;52.08;100653.88;4998204;28;98761;-76
2023/06/25 05:16:59;;;;;;;23.02;21.13;;;;;;;23.05;51.64;100653.97;4997179;28;98346;-76
2023/06/25 05:19:25;;;;;;;24.02;22.05;;;;;;;23.22;51.73;100654.44;4998222;28;96876;-76
2023/06/25 05:21:50;;;;;;;23.67;21.77;;;;;;;23.34;51.24;100644.53;4997970;28;96794;-76
2023/06/25 05:24:16;;;;;;;23.48;21.10;;;;;;;23.47;51.09;100639.84;4997896;28;98825;-76
2023/06/25 05:26:42;;;;;;;23.75;21.52;;;;;;;23.75;50.85;100653.66;4997396;28;98407;-76
2023/06/25 05:29:07;;;;;;;24.83;22.52;;;;;;;23.85;50.38;100650.09;5001429;28;96732;-76
2023/06/25 05:31:33;;;;;;;23.98;21.83;;;;;;;23.91;50.19;100652.25;5017067;28;96836;-76
2023/06/25 05:33:58;;;;;;;25.70;23.05;;;;;;;24.17;49.89;100647.34;5017742;28;97311;-76
2023/06/25 05:36:24;;;;;;;22.05;20.30;;;;;;;24.36;49.42;100661.84;5017216;28;98321;-76
2023/06/25 05:38:49;;;;;;;23.15;21.05;;;;;;;24.58;48.94;100656.34;5017538;28;96729;-77
2023/06/25 05:41:15;;;;;;;24.17;21.90;;;;;;;24.76;48.76;100653.84;5017339;28;96908;-76
2023/06/25 05:43:40;;;;;;;24.40;22.05;;;;;;;25.05;48.41;100658.47;5017838;28;98887;-76
2023/06/25 05:46:11;;;;;;;23.08;20.90;;;;;;;25.32;47.82;100660.53;5017162;28;98686;-76
2023/06/25 05:48:40;;;;;;;24.20;21.77;;;;;;;25.61;46.90;100665.09;5017591;28;97096;-76
2023/06/25 05:51:05;;;;;;;22.67;20.65;;;;;;;25.97;46.04;100660.84;5017322;28;96820;-76
2023/06/25 05:53:39;;;;;;;24.17;22.00;;;;;;;26.55;45.16;100649.13;5017103;28;98896;-76
2023/06/25 05:56:05;;;;;;;22.02;20.13;;;;;;;27.20;43.72;100646.38;5016878;28;98604;-76
2023/06/25 05:58:30;;;;;;;23.58;21.20;;;;;;;28.05;42.55;100647.69;5017556;28;96722;-76
2023/06/25 06:00:56;;;;;;;21.38;19.65;;;;;;;29.24;39.52;100650.50;5017270;28;96894;-76
2023/06/25 06:03:21;;;;;;;23.13;21.50;;;;;;;30.83;37.02;100644.66;5017453;28;98743;-76
2023/06/25 06:05:47;;;;;;;22.27;20.25;;;;;;;33.45;32.96;100637.53;5012538;28;98580;-76
2023/06/25 06:08:13;;;;;;;21.23;19.30;;;;;;;35.65;29.92;100638.84;5013815;28;96750;-75
2023/06/25 06:10:39;;;;;;;21.60;19.55;;;;;;;37.15;27.88;100635.19;5014258;28;97357;-76
2023/06/25 06:13:04;;;;;;;21.75;19.95;;;;;;;38.84;25.65;100637.88;5013867;28;98592;-76
2023/06/25 06:15:30;;;;;;;20.90;19.33;;;;;;;39.72;24.93;100630.91;5013434;28;98382;-76
2023/06/25 06:17:55;;;;;;;20.17;18.77;;;;;;;40.72;23.55;100640.09;5019078;28;96742;-76
2023/06/25 06:20:21;;;;;;;21.55;19.75;;;;;;;40.77;22.69;100629.22;5019550;28;97314;-76
2023/06/25 06:22:46;;;;;;;21.00;19.00;;;;;;;41.60;22.16;100638.78;5016842;28;99074;-75
2023/06/25 06:25:12;;;;;;;20.25;18.45;;;;;;;42.05;21.52;100632.34;5017482;28;97754;-76
2023/06/25 06:27:37;;;;;;;20.67;19.05;;;;;;;42.71;21.28;100637.94;5013439;28;96739;-76
2023/06/25 06:30:03;;;;;;;20.40;18.67;;;;;;;43.04;20.80;100636.09;5029476;28;97077;-76
2023/06/25 06:32:29;;;;;;;18.98;17.58;;;;;;;43.59;20.13;100634.19;5023610;27;98912;-76
2023/06/25 06:34:54;;;;;;;20.48;18.77;;;;;;;44.24;19.71;100630.22;5023646;28;97500;-76
2023/06/25 06:37:20;;;;;;;19.45;17.83;;;;;;;44.42;19.90;100628.97;5019367;28;98323;-76
2023/06/25 06:39:45;;;;;;;18.63;17.23;;;;;;;45.17;19.33;100629.50;5015933;28;96823;-76
2023/06/25 06:42:11;;;;;;;18.63;17.33;;;;;;;45.25;18.85;100636.44;5015915;28;98722;-76
2023/06/25 06:44:37;;;;;;;19.38;17.88;;;;;;;46.00;18.12;100630.34;4991151;28;98596;-76
2023/06/25 06:47:03;;;;;;;19.00;17.75;;;;;;;46.20;17.63;100623.91;5021962;28;97180;-76
2023/06/25 06:49:28;;;;;;;19.85;18.10;;;;;;;46.18;17.24;100624.19;5020911;28;96869;-76
2023/06/25 06:51:54;;;;;;;18.40;16.98;;;;;;;46.75;16.85;100619.25;5025969;28;98816;-76
2023/06/25 06:54:19;;;;;;;19.65;18.10;;;;;;;47.24;16.98;100621.19;5017324;28;98408;-76
2023/06/25 06:56:45;;;;;;;18.45;17.25;;;;;;;47.76;15.46;100616.03;5032220;28;96801;-77
2023/06/25 06:59:10;;;;;;;18.42;17.33;;;;;;;48.05;15.56;100618.78;5019827;28;96810;-77
2023/06/25 07:01:36;;;;;;;19.15;17.65;;;;;;;48.26;15.28;100616.63;5017888;28;97549;-76
2023/06/25 07:04:01;;;;;;;19.10;17.75;;;;;;;48.44;14.92;100610.28;5023837;28;98702;-77
2023/06/25 07:06:27;;;;;;;18.85;17.60;;;;;;;48.45;14.89;100608.31;5024949;28;96829;-76
2023/06/25 07:08:52;;;;;;;19.02;17.83;;;;;;;48.60;15.04;100604.53;5017770;28;98324;-77
2023/06/25 07:11:18;;;;;;;19.02;17.55;;;;;;;49.09;14.34;100601.31;5020572;28;98671;-77
2023/06/25 07:13:45;;;;;;;18.50;17.20;;;;;;;49.31;14.83;100603.50;5012571;28;98294;-77
2023/06/25 07:16:10;;;;;;;19.27;18.08;;;;;;;49.54;13.98;100598.03;5011843;28;96934;-77
2023/06/25 07:18:36;;;;;;;19.60;18.02;;;;;;;49.82;13.78;100604.53;5012456;28;96954;-76
2023/06/25 07:21:02;;;;;;;18.38;17.10;;;;;;;50.09;13.80;100611.28;5011774;28;98738;-76
2023/06/25 07:23:27;;;;;;;18.80;17.60;;;;;;;50.10;13.92;100612.94;5012989;28;98666;-76
2023/06/25 07:25:54;;;;;;;18.65;17.45;;;;;;;50.19;13.82;100609.13;5011852;28;97194;-76
2023/06/25 07:28:19;;;;;;;18.48;17.17;;;;;;;50.51;13.21;100601.75;5012477;28;96797;-76
2023/06/25 07:30:45;;;;;;;18.08;16.70;;;;;;;50.77;13.26;100604.81;5007531;28;98831;-76
2023/06/25 07:33:10;;;;;;;17.77;16.67;;;;;;;50.90;13.66;100600.31;5017123;28;98956;-76
2023/06/25 07:35:36;;;;;;;18.85;17.50;;;;;;;50.84;13.35;100601.59;5012950;28;96776;-77
2023/06/25 07:38:01;;;;;;;18.80;17.50;;;;;;;51.54;12.79;100600.97;5022970;28;97046;-69
2023/06/25 07:40:27;;;;;;;18.85;17.55;;;;;;;51.87;12.18;100592.25;5017824;28;98595;-77
2023/06/25 07:42:52;;;;;;;18.58;17.48;;;;;;;51.48;12.62;100596.66;5007409;28;98990;-76
2023/06/25 07:45:18;;;;;;;19.17;17.98;;;;;;;51.97;12.35;100585.56;5008712;28;96836;-72
2023/06/25 07:47:44;;;;;;;18.83;17.73;;;;;;;52.03;11.77;100585.09;5010024;28;98190;-77
2023/06/25 07:50:10;;;;;;;19.58;18.42;;;;;;;52.63;12.10;100583.59;5012245;28;99067;-77
2023/06/25 07:52:35;;;;;;;19.60;18.30;;;;;;;52.67;11.96;100587.41;4999523;28;98543;-77
2023/06/25 07:55:01;;;;;;;18.10;17.00;;;;;;;52.67;11.81;100575.38;5012921;28;98031;-78
2023/06/25 07:57:27;;;;;;;19.92;18.63;;;;;;;53.16;11.07;100579.66;5017092;28;97216;-75
2023/06/25 07:59:53;;;;;;;19.70;18.50;;;;;;;53.32;10.97;100584.72;5015233;28;98726;-75
2023/06/25 08:02:19;;;;;;;18.67;17.58;;;;;;;53.61;10.57;100582.00;5010298;28;98308;-75
2023/06/25 08:04:44;;;;;;;21.30;19.98;;;;;;;53.51;11.03;100585.19;5013522;28;97387;-74
2023/06/25 08:07:10;;;;;;;21.73;20.35;;;;;;;53.81;10.23;100576.81;5010977;28;96926;-75
2023/06/25 08:09:35;;;;;;;22.27;20.10;;;;;;;53.79;10.65;100571.56;5020334;28;98822;-75
2023/06/25 08:12:01;;;;;;;20.55;19.35;;;;;;;53.82;10.80;100570.91;5012108;28;98296;-76
2023/06/25 08:14:26;;;;;;;22.80;21.17;;;;;;;53.74;11.38;100576.56;4987473;28;98302;-76
2023/06/25 08:16:52;;;;;;;21.15;19.85;;;;;;;53.23;10.85;100564.28;5008138;28;97979;-76
2023/06/25 08:19:17;;;;;;;21.40;19.90;;;;;;;52.80;10.83;100565.97;5006573;28;98763;-76
2023/06/25 08:21:43;;;;;;;20.45;19.20;;;;;;;51.87;11.83;100572.66;5008914;28;98454;-75
2023/06/25 08:24:08;;;;;;;21.73;20.42;;;;;;;51.65;11.72;100573.59;5014632;28;97321;-77
2023/06/25 08:26:34;;;;;;;20.83;19.52;;;;;;;50.21;12.58;100564.97;5019739;28;96872;-77
2023/06/25 08:28:59;;;;;;;19.80;18.50;;;;;;;48.87;13.30;100562.09;5019039;28;99244;-76
2023/06/25 08:31:26;;;;;;;20.48;19.27;;;;;;;46.95;14.87;100562.75;5017956;28;98358;-76
2023/06/25 08:33:52;;;;;;;20.80;19.50;;;;;;;45.40;15.18;100567.16;5005535;28;96940;-76
2023/06/25 08:36:17;;;;;;;19.73;18.48;;;;;;;44.25;16.32;100561.94;5011839;28;97674;-75
2023/06/25 08:38:43;;;;;;;19.17;17.98;;;;;;;43.24;16.69;100562.88;5011222;28;98096;-76
2023/06/25 08:41:08;;;;;;;19.65;18.35;;;;;;;42.58;17.90;100572.09;5015480;28;98656;-76
2023/06/25 08:43:34;;;;;;;20.70;19.40;;;;;;;42.03;17.75;100567.50;5018168;28;97769;-79
2023/06/25 08:46:00;;;;;;;19.58;18.38;;;;;;;41.67;17.61;100571.66;5009822;28;98147;-69
2023/06/25 08:48:28;;;;;;;21.13;19.27;;;;;;;41.41;17.51;100565.72;4998494;28;99032;-70
2023/06/25 08:50:56;;;;;;;20.58;19.08;;;;;;;40.78;18.15;100562.09;5009199;28;98373;-73
2023/06/25 08:53:28;;;;;;;20.13;18.83;;;;;;;40.50;18.56;100574.75;5010378;28;97325;-74
2023/06/25 08:55:58;;;;;;;19.38;18.17;;;;;;;40.24;18.47;100573.38;5020491;28;98703;-72
2023/06/25 08:58:24;;;;;;;19.77;18.45;;;;;;;39.71;19.00;100571.56;5003593;28;99116;-75
2023/06/25 09:00:50;;;;;;;20.80;19.40;;;;;;;39.42;19.77;100578.84;5020679;28;98223;-74
2023/06/25 09:03:16;;;;;;;21.17;19.73;;;;;;;38.75;21.22;100583.56;5012614;28;97397;-75
2023/06/25 09:05:50;;;;;;;19.95;18.65;;;;;;;38.26;21.31;100575.28;5015058;28;96791;-75
2023/06/25 09:08:16;;;;;;;20.30;19.00;;;;;;;37.98;22.43;100575.81;5019027;28;98811;-75
2023/06/25 09:10:41;;;;;;;20.60;19.20;;;;;;;37.90;22.08;100576.91;5020028;28;98268;-75
2023/06/25 09:13:07;;;;;;;20.83;19.38;;;;;;;37.78;22.49;100565.00;5019662;28;97389;-74
2023/06/25 09:15:32;;;;;;;21.38;19.85;;;;;;;37.80;21.92;100579.31;5014031;28;97569;-76
2023/06/25 09:17:58;;;;;;;21.17;19.67;;;;;;;37.69;22.68;100583.63;5014472;28;98725;-73
2023/06/25 09:20:24;;;;;;;20.50;19.00;;;;;;;37.60;22.68;100585.81;5012256;28;98353;-73
2023/06/25 09:22:53;;;;;;;20.65;19.15;;;;;;;37.37;24.78;100582.81;5016326;28;96922;-88
2023/06/25 09:25:21;;;;;;;20.27;18.98;;;;;;;37.01;24.25;100583.50;5019532;28;98025;-89
2023/06/25 09:27:48;;;;;;;20.55;19.10;;;;;;;36.63;24.17;100567.91;5014170;28;98875;-87
2023/06/25 09:30:14;;;;;;;20.45;19.02;;;;;;;36.30;24.72;100582.47;4997350;28;98323;-84
2023/06/25 09:32:50;;;;;;;20.20;18.90;;;;;;;35.99;25.63;100581.28;5009593;28;97192;-90
2023/06/25 09:35:20;;;;;;;20.60;19.30;;;;;;;35.77;25.01;100580.66;5014160;28;96971;-75
2023/06/25 09:37:45;;;;;;;19.85;18.52;;;;;;;35.49;25.11;100580.00;5012717;28;98796;-78
2023/06/25 09:40:11;;;;;;;20.38;18.77;;;;;;;35.35;24.65;100577.28;5021333;28;98452;-81
2023/06/25 09:42:37;;;;;;;19.77;18.48;;;;;;;35.14;25.20;100580.16;5019931;28;96882;-74
2023/06/25 09:45:03;;;;;;;20.33;18.83;;;;;;;35.10;25.30;100578.91;5000712;28;96882;-76
2023/06/25 09:47:29;;;;;;;20.42;18.83;;;;;;;34.83;25.82;100581.56;4998101;28;99000;-75
2023/06/25 09:49:55;;;;;;;20.52;19.00;;;;;;;34.75;25.63;100576.28;5012261;28;98222;-75
2023/06/25 09:52:22;;;;;;;19.23;18.00;;;;;;;34.88;25.49;100580.94;4999564;28;98218;-75
2023/06/25 09:54:48;;;;;;;19.90;18.48;;;;;;;34.77;25.70;100574.19;5001025;28;97529;-75
2023/06/25 09:57:16;;;;;;;20.88;19.08;;;;;;;34.56;26.32;100575.16;5020308;28;98895;-74
2023/06/25 09:59:42;;;;;;;21.35;19.50;;;;;;;34.48;26.40;100572.59;5005889;28;98293;-74
2023/06/25 10:02:08;;;;;;;19.77;18.50;;;;;;;34.51;26.38;100569.44;5008097;28;96980;-74
2023/06/25 10:04:34;;;;;;;20.48;19.00;;;;;;;34.49;26.30;100558.75;5024584;28;98168;-75
2023/06/25 10:07:01;;;;;;;21.15;19.55;;;;;;;34.57;25.76;100565.09;5019743;28;98660;-75
2023/06/25 10:09:27;;;;;;;20.50;19.20;;;;;;;34.43;25.96;100575.06;5003740;28;97945;-74
2023/06/25 10:11:55;;;;;;;20.48;18.98;;;;;;;34.38;26.45;100563.94;5019420;28;96883;-75
2023/06/25 10:14:21;;;;;;;19.55;18.25;;;;;;;34.42;25.99;100565.22;5010272;28;97809;-76
2023/06/25 10:16:54;;;;;;;20.20;18.90;;;;;;;34.33;25.26;100564.56;5027353;28;99190;-74
2023/06/25 10:19:24;;;;;;;21.52;19.77;;;;;;;34.33;25.23;100566.44;5023208;28;98430;-72
2023/06/25 10:22:00;;;;;;;19.10;17.90;;;;;;;34.32;25.46;100565.56;5012764;28;97435;-79
2023/06/25 10:24:25;;;;;;;19.25;17.95;;;;;;;34.19;25.35;100558.19;5013615;28;97070;-74
2023/06/25 10:26:54;;;;;;;19.38;17.95;;;;;;;34.18;25.75;100550.19;4996898;28;98806;-71
2023/06/25 10:29:19;;;;;;;19.95;18.58;;;;;;;34.10;24.98;100548.50;5004014;28;98573;-75
2023/06/25 10:31:45;;;;;;;19.27;18.08;;;;;;;33.95;25.83;100551.31;5011068;27;96843;-73
2023/06/25 10:34:13;;;;;;;20.05;18.42;;;;;;;33.74;25.93;100543.19;5014694;28;96934;-75
2023/06/25 10:36:49;;;;;;;19.75;18.45;;;;;;;33.46;25.95;100552.19;4995870;28;98701;-74
2023/06/25 10:39:15;;;;;;;19.70;18.38;;;;;;;33.14;26.25;100551.69;5016320;28;98715;-78
2023/06/25 10:41:46;;;;;;;20.40;18.98;;;;;;;32.70;26.65;100549.09;4999765;28;96879;-78
2023/06/25 10:44:11;;;;;;;20.40;19.00;;;;;;;32.41;26.78;100548.06;5010162;28;96943;-82
2023/06/25 10:46:37;;;;;;;19.75;18.45;;;;;;;32.16;27.11;100541.25;5019338;28;98739;-83
2023/06/25 10:49:02;;;;;;;20.33;18.60;;;;;;;31.81;28.01;100540.94;5024807;28;98505;-81
2023/06/25 10:51:28;;;;;;;20.67;18.95;;;;;;;31.56;29.76;100556.59;5025996;27;97298;-83
2023/06/25 10:53:57;;;;;;;19.00;17.80;;;;;;;31.28;28.69;100540.88;5023657;28;96803;-88
2023/06/25 10:56:23;;;;;;;19.50;18.30;;;;;;;30.98;29.56;100534.50;5022736;28;98627;-85
2023/06/25 10:58:56;;;;;;;19.17;17.95;;;;;;;30.87;29.02;100543.88;5024067;28;98470;-90
2023/06/25 11:01:22;;;;;;;19.40;18.10;;;;;;;30.66;29.22;100536.34;5023390;28;97132;-74
2023/06/25 11:03:47;;;;;;;19.15;17.75;;;;;;;30.51;29.51;100534.56;5027901;28;97892;-72
2023/06/25 11:06:13;;;;;;;19.50;18.30;;;;;;;30.36;29.40;100529.03;5011121;28;98756;-73